Terminal Aerodrome Forecast
Issued by NWS Lake Charles, LA

Home | Current Version | Previous Version | Text Only | Print | Product List | Glossary On
Versions: 1 2 3 4 5 6 7 8 9 10 11 12 13 14
000
FTUS44 KLCH 011000 AAA
TAFLFT
TAF AMD
KLFT 011027Z 0110/0206 15004KT P6SM SCT025 SCT120
      TEMPO 0112/0116 4SM -RA BR OVC008
     FM011600 20012KT P6SM -RA SCT009 OVC023
     FM020000 24008KT P6SM -RA OVC015
     FM020300 34012KT P6SM -RA OVC008=

USA.gov is the U.S. government's official web portal to all federal, state and local government web resources and services.